createdAt,value
2022-11-29T00:01:41.437Z,8.74
2022-11-29T00:04:10.181Z,8.75
2022-11-29T00:06:38.996Z,8.79
2022-11-29T00:09:11.909Z,8.78
2022-11-29T00:12:02.002Z,8.65
2022-11-29T00:14:30.454Z,8.48
2022-11-29T00:17:04.585Z,8.50
2022-11-29T00:19:35.104Z,8.43
2022-11-29T00:22:04.137Z,8.26
2022-11-29T00:24:32.752Z,8.16
2022-11-29T00:27:01.582Z,8.19
2022-11-29T00:29:30.635Z,8.18
2022-11-29T00:31:59.256Z,8.12
2022-11-29T00:34:27.662Z,8.09
2022-11-29T00:36:55.589Z,8.12
2022-11-29T00:39:23.935Z,8.20
2022-11-29T00:41:52.272Z,8.13
2022-11-29T00:44:20.827Z,8.05
2022-11-29T00:46:49.759Z,8.23
2022-11-29T00:49:18.271Z,8.49
2022-11-29T00:51:47.202Z,8.54
2022-11-29T00:54:16.289Z,8.52
2022-11-29T00:56:44.591Z,8.61
2022-11-29T00:59:12.539Z,8.75
2022-11-29T01:01:40.532Z,8.84
2022-11-29T01:04:08.486Z,8.94
2022-11-29T01:06:36.513Z,9.13
2022-11-29T01:09:05.452Z,9.03
2022-11-29T01:11:34.103Z,8.09
2022-11-29T01:14:03.802Z,7.03
2022-11-29T01:16:32.257Z,6.33
2022-11-29T01:19:00.684Z,6.64
2022-11-29T01:21:29.281Z,7.03
2022-11-29T01:23:57.199Z,7.47
2022-11-29T01:26:29.214Z,7.70
2022-11-29T01:28:58.796Z,7.79
2022-11-29T01:31:31.259Z,7.93
2022-11-29T01:34:03.598Z,8.06
2022-11-29T01:36:34.868Z,8.14
2022-11-29T01:39:06.202Z,8.33
2022-11-29T01:41:37.894Z,8.32
2022-11-29T01:44:25.697Z,8.33
2022-11-29T01:46:55.339Z,8.42
2022-11-29T01:49:32.997Z,8.54
2022-11-29T01:52:11.419Z,8.47
2022-11-29T01:54:45.509Z,8.38
2022-11-29T01:57:14.605Z,8.35
2022-11-29T01:59:48.300Z,8.32
2022-11-29T02:02:29.487Z,8.03
2022-11-29T02:05:00.732Z,7.77
2022-11-29T02:07:29.039Z,7.61
2022-11-29T02:09:56.962Z,7.54
2022-11-29T02:12:40.360Z,7.47
2022-11-29T02:15:26.663Z,7.54
2022-11-29T02:18:11.459Z,7.64
2022-11-29T02:21:43.198Z,7.82
2022-11-29T02:24:42.120Z,7.64
2022-11-29T02:27:43.920Z,7.59
2022-11-29T02:30:49.884Z,7.69
2022-11-29T02:34:07.273Z,7.61
2022-11-29T02:37:07.156Z,7.56
2022-11-29T02:40:01.029Z,7.57
2022-11-29T02:43:16.247Z,7.69
2022-11-29T02:45:51.596Z,7.67
2022-11-29T02:49:07.654Z,7.68
2022-11-29T02:51:48.293Z,7.61
2022-11-29T02:54:40.727Z,7.72
2022-11-29T02:57:45.651Z,7.70
2022-11-29T03:00:18.066Z,7.60
2022-11-29T03:02:52.302Z,7.60
2022-11-29T03:05:47.332Z,7.56
2022-11-29T03:08:34.603Z,7.25
2022-11-29T03:11:30.445Z,7.20
2022-11-29T03:14:31.160Z,7.35
2022-11-29T03:17:12.976Z,7.46
2022-11-29T03:20:13.075Z,7.41
2022-11-29T03:23:19.513Z,7.27
2022-11-29T03:25:59.698Z,7.31
2022-11-29T03:28:55.393Z,7.39
2022-11-29T03:31:32.229Z,7.21
2022-11-29T03:34:23.075Z,6.27
2022-11-29T03:37:16.384Z,5.31
2022-11-29T03:39:44.184Z,5.11
2022-11-29T03:42:34.490Z,5.81
2022-11-29T03:45:22.944Z,6.50
2022-11-29T03:48:22.041Z,6.78
2022-11-29T03:50:57.056Z,6.96
2022-11-29T03:53:56.938Z,6.92
2022-11-29T03:56:32.780Z,6.83
2022-11-29T03:59:19.577Z,6.78
2022-11-29T04:02:32.331Z,6.83
2022-11-29T04:05:36.027Z,6.74
2022-11-29T04:08:22.686Z,6.82
2022-11-29T04:11:21.932Z,6.94
2022-11-29T04:14:03.413Z,6.79
2022-11-29T04:16:56.827Z,6.73
2022-11-29T04:20:00.207Z,6.81
2022-11-29T04:22:54.129Z,6.50
2022-11-29T04:25:33.974Z,5.44
2022-11-29T04:28:45.012Z,4.65
2022-11-29T04:31:50.792Z,4.54
2022-11-29T04:34:49.820Z,5.51
2022-11-29T04:37:51.853Z,6.32
2022-11-29T04:41:05.994Z,6.81
2022-11-29T04:43:55.114Z,7.16
2022-11-29T04:46:38.503Z,7.25
2022-11-29T04:49:25.999Z,7.23
2022-11-29T04:52:33.596Z,6.15
2022-11-29T04:55:34.025Z,5.03
2022-11-29T04:58:15.067Z,4.23
2022-11-29T05:01:18.556Z,4.10
2022-11-29T05:04:19.234Z,5.01
2022-11-29T05:07:18.873Z,5.46
2022-11-29T05:10:18.506Z,5.54
2022-11-29T05:12:59.861Z,5.52
2022-11-29T05:16:24.035Z,5.62
2022-11-29T05:19:12.192Z,5.80
2022-11-29T05:22:17.546Z,6.02
2022-11-29T05:25:24.467Z,6.17
2022-11-29T05:28:33.425Z,6.50
2022-11-29T05:31:29.777Z,6.64
2022-11-29T05:34:18.277Z,6.62
2022-11-29T05:37:14.613Z,5.60
2022-11-29T05:40:47.390Z,4.64
2022-11-29T05:43:54.881Z,4.29
2022-11-29T05:46:52.255Z,5.14
2022-11-29T05:49:38.640Z,5.96
2022-11-29T05:52:19.666Z,6.38
2022-11-29T05:55:07.120Z,6.70
2022-11-29T05:57:55.499Z,6.96
2022-11-29T06:00:24.799Z,7.18
2022-11-29T06:03:33.941Z,7.12
2022-11-29T06:06:26.184Z,5.90
2022-11-29T06:09:07.781Z,4.79
2022-11-29T06:11:54.047Z,4.36
2022-11-29T06:15:24.018Z,4.99
2022-11-29T06:18:12.664Z,5.95
2022-11-29T06:20:54.658Z,6.60
2022-11-29T06:23:54.847Z,6.83
2022-11-29T06:26:52.251Z,7.03
2022-11-29T06:29:54.245Z,7.00
2022-11-29T06:32:55.224Z,5.71
2022-11-29T06:35:47.993Z,4.66
2022-11-29T06:38:23.047Z,3.93
2022-11-29T06:40:54.952Z,3.77
2022-11-29T06:43:27.383Z,4.58
2022-11-29T06:46:10.146Z,5.43
2022-11-29T06:49:22.100Z,6.10
2022-11-29T06:52:12.988Z,6.33
2022-11-29T06:55:12.737Z,6.50
2022-11-29T06:58:30.310Z,6.61
2022-11-29T07:01:23.926Z,6.81
2022-11-29T07:04:25.560Z,6.95
2022-11-29T07:06:54.005Z,6.86
2022-11-29T07:09:33.266Z,5.95
2022-11-29T07:12:01.676Z,5.00
2022-11-29T07:14:30.087Z,4.51
2022-11-29T07:17:28.914Z,5.06
2022-11-29T07:20:20.231Z,5.89
2022-11-29T07:23:06.262Z,6.45
2022-11-29T07:25:55.943Z,6.76
2022-11-29T07:28:50.475Z,7.03
2022-11-29T07:31:42.635Z,7.22
2022-11-29T07:34:35.528Z,6.95
2022-11-29T07:37:20.461Z,5.79
2022-11-29T07:40:06.820Z,4.82
2022-11-29T07:42:50.064Z,4.23
2022-11-29T07:45:27.785Z,4.89
2022-11-29T07:47:56.012Z,5.71
2022-11-29T07:50:26.072Z,6.25
2022-11-29T07:52:56.017Z,6.57
2022-11-29T07:55:27.081Z,6.69
2022-11-29T07:57:54.968Z,6.87
2022-11-29T08:00:23.373Z,7.02
2022-11-29T08:02:51.832Z,6.86
2022-11-29T08:05:19.800Z,6.02
2022-11-29T08:07:47.895Z,5.07
2022-11-29T08:10:17.538Z,4.56
2022-11-29T08:12:50.286Z,5.03
2022-11-29T08:15:21.159Z,5.72
2022-11-29T08:17:49.660Z,6.23
2022-11-29T08:20:18.270Z,6.65
2022-11-29T08:22:58.723Z,6.86
2022-11-29T08:25:28.139Z,7.02
2022-11-29T08:27:56.588Z,7.18
2022-11-29T08:30:24.712Z,7.13
2022-11-29T08:32:53.252Z,6.26
2022-11-29T08:35:23.354Z,5.26
2022-11-29T08:37:51.477Z,4.69
2022-11-29T08:40:19.653Z,5.15
2022-11-29T08:42:47.537Z,5.76
2022-11-29T08:45:15.485Z,6.22
2022-11-29T08:47:43.834Z,6.56
2022-11-29T08:50:16.665Z,6.84
2022-11-29T08:53:07.917Z,7.11
2022-11-29T08:55:43.257Z,7.38
2022-11-29T08:58:14.750Z,7.44
2022-11-29T09:00:47.074Z,6.58
2022-11-29T09:03:34.062Z,5.49
2022-11-29T09:06:12.723Z,4.65
2022-11-29T09:08:45.649Z,4.34
2022-11-29T09:11:20.028Z,5.09
2022-11-29T09:13:54.531Z,5.91
2022-11-29T09:16:26.671Z,6.43
2022-11-29T09:18:56.235Z,6.84
2022-11-29T09:21:26.990Z,7.13
2022-11-29T09:23:59.422Z,7.40
2022-11-29T09:26:31.498Z,6.87
2022-11-29T09:29:04.334Z,5.88
2022-11-29T09:31:34.782Z,5.07
2022-11-29T09:34:02.995Z,4.69
2022-11-29T09:36:31.704Z,5.18
2022-11-29T09:39:03.043Z,5.76
2022-11-29T09:41:58.482Z,6.22
2022-11-29T09:45:03.010Z,6.40
2022-11-29T09:48:31.368Z,6.70
2022-11-29T09:51:30.349Z,6.97
2022-11-29T09:54:23.956Z,7.17
2022-11-29T09:56:55.853Z,7.49
2022-11-29T09:59:49.489Z,7.58
2022-11-29T10:02:45.582Z,6.59
2022-11-29T10:05:44.670Z,5.53
2022-11-29T10:08:27.858Z,5.09
2022-11-29T10:11:31.025Z,5.74
2022-11-29T10:14:18.034Z,6.34
2022-11-29T10:16:55.120Z,6.70
2022-11-29T10:19:37.973Z,6.84
2022-11-29T10:22:18.600Z,7.04
2022-11-29T10:24:51.960Z,7.37
2022-11-29T10:27:24.043Z,7.44
2022-11-29T10:29:52.149Z,6.50
2022-11-29T10:32:24.279Z,5.57
2022-11-29T10:34:52.358Z,4.85
2022-11-29T10:37:23.426Z,4.57
2022-11-29T10:40:00.582Z,5.24
2022-11-29T10:42:47.730Z,6.10
2022-11-29T10:45:40.212Z,6.81
2022-11-29T10:48:12.671Z,7.32
2022-11-29T10:50:44.523Z,7.63
2022-11-29T10:53:22.885Z,7.83
2022-11-29T10:56:00.867Z,7.85
2022-11-29T10:58:31.128Z,6.76
2022-11-29T11:01:17.420Z,5.73
2022-11-29T11:03:58.025Z,4.96
2022-11-29T11:06:49.253Z,4.62
2022-11-29T11:09:28.083Z,5.45
2022-11-29T11:12:00.951Z,6.06
2022-11-29T11:14:34.667Z,6.49
2022-11-29T11:17:27.092Z,6.92
2022-11-29T11:20:06.609Z,7.25
2022-11-29T11:22:40.168Z,7.38
2022-11-29T11:25:35.292Z,7.59
2022-11-29T11:28:27.199Z,7.60
2022-11-29T11:31:16.211Z,6.49
2022-11-29T11:33:46.458Z,5.50
2022-11-29T11:36:20.357Z,4.89
2022-11-29T11:38:55.827Z,4.62
2022-11-29T11:41:55.877Z,5.31
2022-11-29T11:44:47.846Z,6.01
2022-11-29T11:47:22.804Z,6.45
2022-11-29T11:50:02.498Z,6.76
2022-11-29T11:52:50.162Z,7.05
2022-11-29T11:55:21.791Z,7.19
2022-11-29T11:58:10.328Z,7.37
2022-11-29T12:01:06.070Z,7.65
2022-11-29T12:03:52.832Z,7.85
2022-11-29T12:06:43.262Z,7.64
2022-11-29T12:09:40.767Z,6.50
2022-11-29T12:12:23.366Z,5.40
2022-11-29T12:15:34.305Z,4.65
2022-11-29T12:18:12.677Z,4.45
2022-11-29T12:21:07.615Z,5.17
2022-11-29T12:24:10.710Z,5.94
2022-11-29T12:26:58.617Z,6.37
2022-11-29T12:29:32.356Z,6.71
2022-11-29T12:32:42.650Z,6.90
2022-11-29T12:35:40.912Z,7.02
2022-11-29T12:38:24.681Z,7.06
2022-11-29T12:41:16.444Z,7.28
2022-11-29T12:44:07.806Z,7.03
2022-11-29T12:46:39.334Z,6.09
2022-11-29T12:49:33.682Z,5.27
2022-11-29T12:52:13.690Z,4.88
2022-11-29T12:55:10.332Z,5.51
2022-11-29T12:57:45.996Z,6.13
2022-11-29T13:00:20.471Z,6.43
2022-11-29T13:03:07.172Z,6.62
2022-11-29T13:05:57.023Z,6.69
2022-11-29T13:08:49.249Z,6.82
2022-11-29T13:11:40.380Z,7.00
2022-11-29T13:14:41.986Z,7.27
2022-11-29T13:17:39.746Z,7.38
2022-11-29T13:20:25.637Z,7.33
2022-11-29T13:23:39.158Z,7.22
2022-11-29T13:26:13.964Z,7.19
2022-11-29T13:28:46.502Z,7.32
2022-11-29T13:31:20.577Z,7.39
2022-11-29T13:34:10.561Z,7.21
2022-11-29T13:37:13.193Z,6.36
2022-11-29T13:40:06.204Z,5.44
2022-11-29T13:43:18.027Z,4.75
2022-11-29T13:46:36.866Z,4.57
2022-11-29T13:49:04.849Z,5.32
2022-11-29T13:51:41.287Z,5.62
2022-11-29T13:54:32.825Z,5.85
2022-11-29T13:57:10.496Z,6.04
2022-11-29T13:59:45.881Z,6.21
2022-11-29T14:02:41.860Z,6.54
2022-11-29T14:05:29.046Z,6.89
2022-11-29T14:08:26.783Z,6.97
2022-11-29T14:11:01.965Z,6.73
2022-11-29T14:14:18.077Z,6.77
2022-11-29T14:16:53.775Z,7.00
2022-11-29T14:19:33.453Z,7.07
2022-11-29T14:22:07.738Z,6.87
2022-11-29T14:24:35.600Z,6.69
2022-11-29T14:27:06.794Z,6.76
2022-11-29T14:29:54.129Z,6.75
2022-11-29T14:32:58.959Z,6.62
2022-11-29T14:35:37.798Z,6.66
2022-11-29T14:38:30.708Z,6.75
2022-11-29T14:41:46.011Z,6.92
2022-11-29T14:44:28.351Z,6.66
2022-11-29T14:47:27.349Z,5.66
2022-11-29T14:49:58.185Z,4.76
2022-11-29T14:52:33.791Z,4.39
2022-11-29T14:55:04.946Z,5.02
2022-11-29T14:57:48.247Z,5.68
2022-11-29T15:00:38.903Z,6.24
2022-11-29T15:03:42.975Z,6.66
2022-11-29T15:06:26.372Z,6.93
2022-11-29T15:09:11.207Z,6.97
2022-11-29T15:11:56.934Z,6.99
2022-11-29T15:14:56.701Z,6.96
2022-11-29T15:17:54.708Z,6.10
2022-11-29T15:20:31.389Z,5.15
2022-11-29T15:23:04.336Z,4.66
2022-11-29T15:25:33.345Z,4.86
2022-11-29T15:28:06.091Z,5.13
2022-11-29T15:30:37.112Z,5.42
2022-11-29T15:33:23.884Z,5.73
2022-11-29T15:36:04.940Z,6.04
2022-11-29T15:38:44.086Z,6.38
2022-11-29T15:41:30.535Z,6.55
2022-11-29T15:44:06.250Z,6.74
2022-11-29T15:46:36.052Z,6.88
2022-11-29T15:49:18.861Z,6.90
2022-11-29T15:52:08.530Z,6.86
2022-11-29T15:54:46.301Z,6.95
2022-11-29T15:57:29.169Z,6.95
2022-11-29T16:00:05.600Z,6.86
2022-11-29T16:02:39.383Z,6.78
2022-11-29T16:05:29.822Z,6.64
2022-11-29T16:08:05.007Z,6.77
2022-11-29T16:10:43.563Z,6.76
2022-11-29T16:13:31.321Z,6.49
2022-11-29T16:16:22.136Z,5.60
2022-11-29T16:18:51.267Z,4.69
2022-11-29T16:21:32.130Z,4.25
2022-11-29T16:24:20.172Z,4.59
2022-11-29T16:26:50.995Z,4.94
2022-11-29T16:29:38.392Z,5.05
2022-11-29T16:32:42.623Z,5.21
2022-11-29T16:35:18.834Z,5.39
2022-11-29T16:37:48.029Z,5.74
2022-11-29T16:40:35.592Z,6.11
2022-11-29T16:43:03.509Z,6.30
2022-11-29T16:45:41.857Z,6.40
2022-11-29T16:48:31.219Z,6.50
2022-11-29T16:51:11.266Z,6.41
2022-11-29T16:53:47.978Z,6.27
2022-11-29T16:56:20.657Z,6.20
2022-11-29T16:59:24.844Z,6.14
2022-11-29T17:01:43.239Z,6.08
2022-11-29T17:04:11.124Z,6.25
2022-11-29T17:06:39.283Z,6.28
2022-11-29T17:09:07.465Z,6.33
2022-11-29T17:11:35.515Z,6.39
2022-11-29T17:14:03.543Z,6.41
2022-11-29T17:16:31.545Z,6.51
2022-11-29T17:18:59.421Z,6.49
2022-11-29T17:21:32.517Z,6.52
2022-11-29T17:24:00.377Z,6.42
2022-11-29T17:26:35.861Z,5.54
2022-11-29T17:29:04.102Z,4.67
2022-11-29T17:31:32.840Z,4.17
2022-11-29T17:34:02.560Z,4.52
2022-11-29T17:36:31.366Z,5.04
2022-11-29T17:39:00.688Z,5.41
2022-11-29T17:41:29.402Z,5.55
2022-11-29T17:43:58.172Z,5.64
2022-11-29T17:46:36.177Z,5.76
2022-11-29T17:49:08.536Z,5.82
2022-11-29T17:51:54.237Z,5.88
2022-11-29T17:54:22.981Z,6.05
2022-11-29T17:56:52.150Z,6.22
2022-11-29T17:59:20.595Z,6.27
2022-11-29T18:01:48.672Z,6.40
2022-11-29T18:04:16.830Z,6.48
2022-11-29T18:06:50.005Z,6.58
2022-11-29T18:09:19.777Z,6.62
2022-11-29T18:11:50.103Z,6.61
2022-11-29T18:14:24.042Z,6.00
2022-11-29T18:16:52.467Z,5.10
2022-11-29T18:19:23.058Z,4.35
2022-11-29T18:21:58.149Z,3.86
2022-11-29T18:24:27.385Z,3.95
2022-11-29T18:27:00.319Z,4.20
2022-11-29T18:29:38.283Z,4.79
2022-11-29T18:32:07.549Z,5.26
2022-11-29T18:34:38.839Z,5.68
2022-11-29T18:37:16.014Z,6.01
2022-11-29T18:39:51.706Z,6.29
2022-11-29T18:42:21.708Z,6.44
2022-11-29T18:44:51.725Z,6.22
2022-11-29T18:47:24.566Z,5.67
2022-11-29T18:53:04.537Z,4.21
2022-11-29T18:55:37.258Z,4.65
2022-11-29T18:58:09.475Z,5.17
2022-11-29T19:00:37.780Z,5.63
2022-11-29T19:03:07.200Z,5.76
2022-11-29T19:05:41.043Z,5.67
2022-11-29T19:08:12.288Z,5.59
2022-11-29T19:10:42.184Z,5.52
2022-11-29T19:13:18.672Z,5.48
2022-11-29T19:15:55.932Z,5.61
2022-11-29T19:18:37.041Z,5.85
2022-11-29T19:21:12.697Z,6.05
2022-11-29T19:23:56.188Z,6.22
2022-11-29T19:26:28.130Z,6.22
2022-11-29T19:29:04.141Z,6.11
2022-11-29T19:31:36.343Z,6.11
2022-11-29T19:34:11.478Z,6.02
2022-11-29T19:36:46.363Z,5.91
2022-11-29T19:39:18.129Z,6.04
2022-11-29T19:41:50.254Z,6.11
2022-11-29T19:44:18.528Z,6.11
2022-11-29T19:46:49.563Z,6.03
2022-11-29T19:49:17.756Z,5.97
2022-11-29T19:51:45.831Z,6.25
2022-11-29T19:54:14.260Z,6.35
2022-11-29T19:56:55.775Z,5.56
2022-11-29T19:59:27.251Z,4.64
2022-11-29T20:01:57.487Z,4.00
2022-11-29T20:04:27.620Z,3.67
2022-11-29T20:06:58.145Z,4.03
2022-11-29T20:09:31.645Z,4.33
2022-11-29T20:12:02.011Z,4.45
2022-11-29T20:14:33.557Z,4.68
2022-11-29T20:17:07.842Z,4.99
2022-11-29T20:19:41.622Z,5.22
2022-11-29T20:22:09.822Z,5.39
2022-11-29T20:24:45.351Z,5.46
2022-11-29T20:27:19.496Z,5.59
2022-11-29T20:29:47.796Z,5.62
2022-11-29T20:32:23.701Z,5.85
2022-11-29T20:34:57.478Z,6.09
2022-11-29T20:38:17.259Z,5.78
2022-11-29T20:41:07.820Z,4.65
2022-11-29T20:43:49.709Z,3.83
2022-11-29T20:46:20.094Z,3.60
2022-11-29T20:48:48.695Z,4.11
2022-11-29T20:51:28.609Z,4.59
2022-11-29T20:53:58.992Z,5.15
2022-11-29T20:56:36.846Z,5.57
2022-11-29T20:59:04.794Z,5.75
2022-11-29T21:01:35.642Z,5.81
2022-11-29T21:04:18.849Z,5.82
2022-11-29T21:06:58.797Z,5.98
2022-11-29T21:09:28.633Z,6.09
2022-11-29T21:12:02.817Z,6.08
2022-11-29T21:14:35.729Z,5.37
2022-11-29T21:17:04.596Z,4.50
2022-11-29T21:19:49.755Z,3.83
2022-11-29T21:22:32.491Z,3.67
2022-11-29T21:25:21.476Z,4.51
2022-11-29T21:27:52.705Z,5.34
2022-11-29T21:30:28.251Z,6.79
2022-11-29T21:32:58.611Z,7.14
2022-11-29T21:35:30.148Z,6.19
2022-11-29T21:38:14.770Z,5.03
2022-11-29T21:40:45.086Z,4.22
2022-11-29T21:43:16.074Z,3.82
2022-11-29T21:45:52.519Z,4.35
2022-11-29T21:48:38.241Z,6.00
2022-11-29T21:51:22.437Z,7.74
2022-11-29T21:53:50.947Z,8.18
2022-11-29T21:56:24.401Z,7.07
2022-11-29T21:59:02.819Z,5.80
2022-11-29T22:01:32.382Z,4.88
2022-11-29T22:04:00.714Z,4.25
2022-11-29T22:06:29.559Z,3.73
2022-11-29T22:08:59.864Z,3.71
2022-11-29T22:11:35.531Z,5.65
2022-11-29T22:14:15.803Z,7.90
2022-11-29T22:17:17.705Z,8.81
2022-11-29T22:19:45.666Z,7.36
2022-11-29T22:22:13.991Z,6.12
2022-11-29T22:24:43.306Z,5.22
2022-11-29T22:27:11.329Z,4.55
2022-11-29T22:29:39.178Z,4.04
2022-11-29T22:32:07.174Z,3.83
2022-11-29T22:34:36.671Z,5.36
2022-11-29T22:37:04.772Z,7.71
2022-11-29T22:39:32.709Z,9.11
2022-11-29T22:42:06.239Z,8.33
2022-11-29T22:44:35.190Z,6.84
2022-11-29T22:47:04.139Z,5.73
2022-11-29T22:49:33.733Z,4.95
2022-11-29T22:52:02.309Z,4.35
2022-11-29T22:54:34.088Z,3.86
2022-11-29T22:57:03.098Z,4.09
2022-11-29T22:59:33.808Z,6.47
2022-11-29T23:02:02.470Z,8.54
2022-11-29T23:04:30.479Z,9.15
2022-11-29T23:07:05.635Z,7.80
2022-11-29T23:09:35.347Z,6.39
2022-11-29T23:12:11.124Z,5.31
2022-11-29T23:14:40.744Z,4.57
2022-11-29T23:17:08.765Z,4.04
2022-11-29T23:19:39.394Z,3.60
2022-11-29T23:22:07.723Z,3.47
2022-11-29T23:24:35.659Z,5.01
2022-11-29T23:27:04.597Z,7.36
2022-11-29T23:29:32.539Z,8.91
2022-11-29T23:32:00.481Z,9.50
2022-11-29T23:34:28.424Z,8.31
2022-11-29T23:36:56.319Z,6.92
2022-11-29T23:39:24.190Z,5.87
2022-11-29T23:41:52.113Z,5.11
2022-11-29T23:44:20.026Z,4.51
2022-11-29T23:46:47.915Z,4.03
2022-11-29T23:49:15.862Z,3.81
2022-11-29T23:51:43.664Z,4.73
2022-11-29T23:54:11.641Z,7.22
2022-11-29T23:56:39.603Z,8.73
2022-11-29T23:59:07.653Z,7.84
